createdAt,value
2016-08-05T00:00:07.281Z,16.7
2016-08-05T00:00:21.412Z,16.8
2016-08-05T00:00:34.792Z,16.7
2016-08-05T00:00:49.684Z,16.8
2016-08-05T00:01:03.806Z,16.8
2016-08-05T00:01:17.917Z,16.8
2016-08-05T00:01:32.021Z,16.7
2016-08-05T00:01:46.126Z,16.8
2016-08-05T00:02:00.269Z,16.8
2016-08-05T00:02:12.904Z,16.7
2016-08-05T00:02:27.774Z,16.7
2016-08-05T00:02:41.927Z,16.8
2016-08-05T00:02:55.307Z,16.8
2016-08-05T00:03:10.922Z,16.7
2016-08-05T00:03:25.799Z,16.8
2016-08-05T00:03:37.758Z,16.9
2016-08-05T00:03:52.632Z,16.8
2016-08-05T00:04:07.492Z,16.8
2016-08-05T00:04:23.102Z,16.8
2016-08-05T00:04:38.728Z,16.8
2016-08-05T00:04:52.845Z,16.7
2016-08-05T00:05:06.280Z,16.7
2016-08-05T00:05:20.410Z,16.7
2016-08-05T00:05:35.284Z,16.7
2016-08-05T00:05:49.401Z,16.8
2016-08-05T00:06:03.528Z,16.7
2016-08-05T00:06:19.166Z,16.7
2016-08-05T00:06:33.339Z,16.7
2016-08-05T00:06:48.203Z,16.8
2016-08-05T00:07:00.096Z,16.7
2016-08-05T00:07:14.218Z,16.7
2016-08-05T00:07:29.108Z,16.7
2016-08-05T00:07:42.479Z,16.7
2016-08-05T00:07:55.853Z,16.7
2016-08-05T00:08:09.202Z,16.7
2016-08-05T00:08:24.065Z,16.7
2016-08-05T00:08:38.949Z,16.7
2016-08-05T00:08:53.138Z,16.7
2016-08-05T00:09:07.992Z,16.7
2016-08-05T00:09:21.375Z,16.7
2016-08-05T00:09:36.983Z,16.7
2016-08-05T00:09:50.354Z,16.6
2016-08-05T00:10:12.676Z,16.7
2016-08-05T00:10:27.563Z,16.6
2016-08-05T00:10:42.436Z,16.7
2016-08-05T00:10:57.356Z,16.7
2016-08-05T00:11:12.221Z,16.6
2016-08-05T00:11:23.402Z,16.6
2016-08-05T00:11:38.270Z,16.7
2016-08-05T00:11:53.880Z,16.7
2016-08-05T00:12:08.735Z,16.7
2016-08-05T00:12:24.359Z,16.5
2016-08-05T00:12:37.735Z,16.5
2016-08-05T00:12:52.593Z,16.7
2016-08-05T00:13:08.211Z,16.7
2016-08-05T00:13:22.337Z,16.6
2016-08-05T00:13:35.726Z,16.6
2016-08-05T00:13:49.867Z,16.7
2016-08-05T00:14:03.976Z,16.6
2016-08-05T00:14:17.362Z,16.7
2016-08-05T00:14:32.219Z,16.6
2016-08-05T00:14:46.340Z,16.6
2016-08-05T00:14:59.697Z,16.7
2016-08-05T00:15:15.319Z,16.7
2016-08-05T00:15:29.444Z,16.7
2016-08-05T00:15:44.360Z,16.7
2016-08-05T00:15:57.802Z,16.6
2016-08-05T00:16:11.179Z,16.6
2016-08-05T00:16:25.329Z,16.7
2016-08-05T00:16:40.949Z,16.7
2016-08-05T00:16:54.328Z,16.7
2016-08-05T00:17:07.696Z,16.7
2016-08-05T00:17:21.079Z,16.6
2016-08-05T00:17:35.943Z,16.6
2016-08-05T00:17:50.056Z,16.7
2016-08-05T00:18:05.684Z,16.5
2016-08-05T00:18:17.627Z,16.7
2016-08-05T00:18:30.987Z,16.8
2016-08-05T00:18:45.103Z,16.7
2016-08-05T00:19:00.724Z,16.7
2016-08-05T00:19:11.922Z,16.6
2016-08-05T00:19:27.537Z,16.7
2016-08-05T00:19:43.183Z,16.5
2016-08-05T00:20:06.594Z,16.6
2016-08-05T00:20:21.448Z,16.5
2016-08-05T00:20:36.335Z,16.6
2016-08-05T00:20:49.709Z,16.6
2016-08-05T00:21:03.951Z,16.6
2016-08-05T00:21:19.576Z,16.6
2016-08-05T00:21:34.446Z,16.5
2016-08-05T00:21:48.558Z,16.5
2016-08-05T00:22:03.449Z,16.6
2016-08-05T00:22:17.560Z,16.5
2016-08-05T00:22:32.420Z,16.6
2016-08-05T00:22:48.027Z,16.7
2016-08-05T00:23:02.910Z,16.6
2016-08-05T00:23:15.512Z,16.6
2016-08-05T00:23:29.631Z,16.6
2016-08-05T00:23:43.774Z,16.6
2016-08-05T00:23:57.956Z,16.6
2016-08-05T00:24:12.087Z,16.6
2016-08-05T00:24:27.768Z,16.5
2016-08-05T00:24:42.621Z,16.5
2016-08-05T00:24:56.762Z,16.6
2016-08-05T00:25:10.885Z,16.4
2016-08-05T00:25:33.726Z,16.5
2016-08-05T00:25:47.160Z,16.5
2016-08-05T00:26:02.024Z,16.5
2016-08-05T00:26:15.439Z,16.5
2016-08-05T00:26:30.299Z,16.5
2016-08-05T00:26:45.918Z,16.5
2016-08-05T00:27:00.802Z,16.5
2016-08-05T00:27:15.664Z,16.5
2016-08-05T00:27:31.280Z,16.4
2016-08-05T00:27:44.641Z,16.4
2016-08-05T00:27:58.750Z,16.5
2016-08-05T00:28:14.367Z,16.5
2016-08-05T00:28:27.752Z,16.5
2016-08-05T00:28:41.113Z,16.5
2016-08-05T00:28:55.973Z,16.4
2016-08-05T00:29:09.349Z,16.5
2016-08-05T00:29:24.267Z,16.5
2016-08-05T00:29:38.372Z,16.5
2016-08-05T00:29:53.988Z,16.4
2016-08-05T00:30:09.614Z,16.4
2016-08-05T00:30:22.982Z,16.4
2016-08-05T00:30:37.847Z,16.5
2016-08-05T00:30:49.742Z,16.5
2016-08-05T00:31:03.119Z,16.5
2016-08-05T00:31:17.996Z,16.5
2016-08-05T00:31:32.116Z,16.5
2016-08-05T00:31:47.729Z,16.4
2016-08-05T00:32:01.841Z,16.4
2016-08-05T00:32:16.706Z,16.5
2016-08-05T00:32:30.818Z,16.5
2016-08-05T00:32:45.717Z,16.4
2016-08-05T00:32:59.111Z,16.5
2016-08-05T00:33:11.051Z,16.4
2016-08-05T00:33:24.496Z,16.4
2016-08-05T00:33:39.384Z,16.5
2016-08-05T00:33:52.846Z,16.4
2016-08-05T00:34:07.722Z,16.5
2016-08-05T00:34:21.865Z,16.4
2016-08-05T00:34:35.989Z,16.4
2016-08-05T00:34:50.868Z,16.5
2016-08-05T00:35:03.511Z,16.5
2016-08-05T00:35:17.641Z,16.5
2016-08-05T00:35:32.499Z,16.4
2016-08-05T00:35:47.348Z,16.5
2016-08-05T00:36:02.216Z,16.4
2016-08-05T00:36:17.827Z,16.5
2016-08-05T00:36:31.192Z,16.5
2016-08-05T00:36:43.797Z,16.5
2016-08-05T00:36:59.422Z,16.4
2016-08-05T00:37:12.801Z,16.4
2016-08-05T00:37:27.684Z,16.4
2016-08-05T00:37:42.560Z,16.4
2016-08-05T00:37:56.672Z,16.4
2016-08-05T00:38:11.538Z,16.5
2016-08-05T00:38:25.672Z,16.4
2016-08-05T00:38:39.058Z,16.5
2016-08-05T00:38:52.420Z,16.4
2016-08-05T00:39:07.337Z,16.4
2016-08-05T00:39:21.450Z,16.5
2016-08-05T00:39:36.308Z,16.5
2016-08-05T00:39:51.940Z,16.4
2016-08-05T00:40:06.053Z,16.3
2016-08-05T00:40:31.063Z,16.4
2016-08-05T00:40:45.929Z,16.4
2016-08-05T00:40:59.315Z,16.5
2016-08-05T00:41:14.168Z,16.5
2016-08-05T00:41:26.782Z,16.4
2016-08-05T00:41:40.899Z,16.5
2016-08-05T00:41:55.009Z,16.5
2016-08-05T00:42:09.128Z,16.4
2016-08-05T00:42:23.265Z,16.5
2016-08-05T00:42:37.382Z,16.5
2016-08-05T00:42:52.271Z,16.5
2016-08-05T00:43:05.634Z,16.5
2016-08-05T00:43:20.496Z,16.5
2016-08-05T00:43:33.851Z,16.5
2016-08-05T00:43:47.963Z,16.5
2016-08-05T00:44:02.843Z,16.4
2016-08-05T00:44:16.202Z,16.4
2016-08-05T00:44:31.076Z,16.3
2016-08-05T00:44:45.218Z,16.4
2016-08-05T00:45:00.085Z,16.4
2016-08-05T00:45:13.443Z,16.5
2016-08-05T00:45:26.826Z,16.4
2016-08-05T00:45:42.443Z,16.4
2016-08-05T00:45:55.806Z,16.4
2016-08-05T00:46:10.678Z,16.5
2016-08-05T00:46:22.593Z,16.5
2016-08-05T00:46:37.469Z,16.5
2016-08-05T00:46:53.096Z,16.4
2016-08-05T00:47:07.967Z,16.4
2016-08-05T00:47:22.074Z,16.3
2016-08-05T00:47:35.454Z,16.2
2016-08-05T00:47:50.331Z,16.3
2016-08-05T00:48:05.198Z,16.4
2016-08-05T00:48:19.326Z,16.4
2016-08-05T00:48:34.951Z,16.3
2016-08-05T00:48:49.108Z,16.3
2016-08-05T00:49:01.791Z,16.3
2016-08-05T00:49:15.934Z,16.3
2016-08-05T00:49:30.052Z,16.4
2016-08-05T00:49:44.161Z,16.3
2016-08-05T00:49:59.785Z,16.3
2016-08-05T00:50:15.419Z,16.4
2016-08-05T00:50:30.278Z,16.4
2016-08-05T00:50:42.896Z,16.4
2016-08-05T00:50:57.768Z,16.4
2016-08-05T00:51:13.384Z,16.4
2016-08-05T00:51:27.527Z,16.4
2016-08-05T00:51:43.134Z,16.4
2016-08-05T00:51:57.243Z,16.5
2016-08-05T00:52:10.636Z,16.5
2016-08-05T00:52:24.743Z,16.4
2016-08-05T00:52:38.872Z,16.4
2016-08-05T00:52:53.744Z,16.5
2016-08-05T00:53:07.122Z,16.4
2016-08-05T00:53:19.752Z,16.4
2016-08-05T00:53:35.377Z,16.5
2016-08-05T00:53:49.487Z,16.5
2016-08-05T00:54:04.370Z,16.4
2016-08-05T00:54:18.497Z,16.4
2016-08-05T00:54:32.625Z,16.3
2016-08-05T00:54:46.757Z,16.4
2016-08-05T00:55:00.101Z,16.3
2016-08-05T00:55:12.743Z,16.3
2016-08-05T00:55:36.341Z,16.3
2016-08-05T00:55:49.720Z,16.4
2016-08-05T00:56:03.838Z,16.4
2016-08-05T00:56:18.706Z,16.4
2016-08-05T00:56:33.593Z,16.4
2016-08-05T00:56:47.726Z,16.3
2016-08-05T00:57:02.595Z,16.5
2016-08-05T00:57:17.457Z,16.4
2016-08-05T00:57:32.318Z,16.3
2016-08-05T00:57:47.179Z,16.4
2016-08-05T00:58:01.318Z,16.4
2016-08-05T00:58:16.177Z,16.4
2016-08-05T00:58:31.112Z,16.4
2016-08-05T00:58:45.969Z,16.4
2016-08-05T00:59:01.588Z,16.3
2016-08-05T00:59:13.442Z,16.4
2016-08-05T00:59:26.817Z,16.4
2016-08-05T00:59:42.440Z,16.4
2016-08-05T00:59:58.067Z,16.4
2016-08-05T01:00:11.438Z,16.4
2016-08-05T01:00:25.552Z,16.4
2016-08-05T01:00:41.160Z,16.4
2016-08-05T01:00:56.020Z,16.4
2016-08-05T01:01:10.894Z,16.3
2016-08-05T01:01:25.757Z,16.3
2016-08-05T01:01:40.625Z,16.3
2016-08-05T01:01:54.732Z,16.4
2016-08-05T01:02:09.651Z,16.4
2016-08-05T01:02:25.266Z,16.4
2016-08-05T01:02:40.885Z,16.4
2016-08-05T01:02:53.528Z,16.3
2016-08-05T01:03:07.662Z,16.3
2016-08-05T01:03:22.525Z,16.3
2016-08-05T01:03:37.397Z,16.4
2016-08-05T01:03:53.006Z,16.3
2016-08-05T01:04:07.884Z,16.4
2016-08-05T01:04:21.267Z,16.4
2016-08-05T01:04:35.384Z,16.3
2016-08-05T01:04:48.760Z,16.3
2016-08-05T01:05:04.370Z,16.3
2016-08-05T01:05:19.254Z,16.3
2016-08-05T01:05:34.900Z,16.3
2016-08-05T01:05:48.266Z,16.3
2016-08-05T01:06:02.401Z,16.3
2016-08-05T01:06:17.265Z,16.3
2016-08-05T01:06:30.635Z,16.3
2016-08-05T01:06:44.756Z,16.3
2016-08-05T01:07:00.369Z,16.3
2016-08-05T01:07:15.991Z,16.4
2016-08-05T01:07:28.636Z,16.3
2016-08-05T01:07:44.248Z,16.3
2016-08-05T01:07:59.121Z,16.2
2016-08-05T01:08:13.482Z,16.3
2016-08-05T01:08:27.598Z,16.4
2016-08-05T01:08:40.210Z,16.3
2016-08-05T01:08:54.315Z,16.3
2016-08-05T01:09:07.726Z,16.3
2016-08-05T01:09:23.348Z,16.3
2016-08-05T01:09:37.472Z,16.3
2016-08-05T01:09:51.611Z,16.4
2016-08-05T01:10:06.490Z,16.4
2016-08-05T01:10:32.435Z,16.2
2016-08-05T01:10:48.053Z,16.3
2016-08-05T01:11:03.668Z,16.3
2016-08-05T01:11:18.528Z,16.4
2016-08-05T01:11:32.645Z,16.3
2016-08-05T01:11:46.775Z,16.3
2016-08-05T01:12:01.697Z,16.4
2016-08-05T01:12:13.564Z,16.3
2016-08-05T01:12:29.188Z,16.3
2016-08-05T01:12:44.819Z,16.2
2016-08-05T01:12:57.428Z,16.3
2016-08-05T01:13:12.283Z,16.2
2016-08-05T01:13:27.901Z,16.2
2016-08-05T01:13:42.858Z,16.3
2016-08-05T01:13:56.974Z,16.2
2016-08-05T01:14:09.619Z,16.2
2016-08-05T01:14:23.732Z,16.3
2016-08-05T01:14:37.112Z,16.2
2016-08-05T01:14:51.225Z,16.2
2016-08-05T01:15:04.589Z,16.2
2016-08-05T01:15:18.700Z,16.3
2016-08-05T01:15:32.813Z,16.3
2016-08-05T01:15:46.167Z,16.2
2016-08-05T01:16:00.280Z,16.3
2016-08-05T01:16:14.437Z,16.3
2016-08-05T01:16:27.807Z,16.3
2016-08-05T01:16:42.004Z,16.2
2016-08-05T01:16:56.117Z,16.2
2016-08-05T01:17:08.753Z,16.3
2016-08-05T01:17:24.385Z,16.2
2016-08-05T01:17:38.499Z,16.3
2016-08-05T01:17:54.117Z,16.3
2016-08-05T01:18:08.250Z,16.2
2016-08-05T01:18:20.929Z,16.2
2016-08-05T01:18:34.298Z,16.2
2016-08-05T01:18:48.424Z,16.2
2016-08-05T01:19:04.044Z,16.2
2016-08-05T01:19:18.160Z,16.2
2016-08-05T01:19:33.764Z,16.2
2016-08-05T01:19:48.624Z,16.2
2016-08-05T01:20:01.978Z,16.3
2016-08-05T01:20:16.852Z,16.3
2016-08-05T01:20:30.977Z,16.3
2016-08-05T01:20:45.103Z,16.2
2016-08-05T01:20:57.730Z,16.2
2016-08-05T01:21:11.090Z,16.2
2016-08-05T01:21:25.959Z,16.2
2016-08-05T01:21:39.347Z,16.2
2016-08-05T01:21:50.460Z,16.2
2016-08-05T01:22:04.576Z,16.2
2016-08-05T01:22:17.951Z,16.2
2016-08-05T01:22:33.573Z,16.2
2016-08-05T01:22:48.445Z,16.2
2016-08-05T01:23:02.555Z,16.2
2016-08-05T01:23:17.428Z,16.1
2016-08-05T01:23:30.843Z,16.1
2016-08-05T01:23:44.960Z,16.1
2016-08-05T01:23:59.083Z,16
2016-08-05T01:24:11.716Z,16.3
2016-08-05T01:24:23.605Z,16.1
2016-08-05T01:24:38.494Z,16.1
2016-08-05T01:24:54.117Z,16.2
2016-08-05T01:25:08.231Z,16.1
2016-08-05T01:25:33.720Z,16.1
2016-08-05T01:25:49.345Z,16.1
2016-08-05T01:26:04.967Z,16.2
2016-08-05T01:26:19.077Z,16.2
2016-08-05T01:26:32.474Z,16.2
2016-08-05T01:26:45.853Z,16.2
2016-08-05T01:26:59.991Z,16.1
2016-08-05T01:27:14.107Z,16.2
2016-08-05T01:27:28.235Z,16.2
2016-08-05T01:27:41.604Z,16.2
2016-08-05T01:27:56.460Z,16.2
2016-08-05T01:28:10.585Z,16.1
2016-08-05T01:28:26.208Z,16.2
2016-08-05T01:28:40.321Z,16.2
2016-08-05T01:28:55.182Z,16.1
2016-08-05T01:29:10.055Z,16.2
2016-08-05T01:29:24.173Z,16.1
2016-08-05T01:29:39.054Z,16.2
2016-08-05T01:29:52.421Z,16
2016-08-05T01:30:06.522Z,16.2
2016-08-05T01:30:21.371Z,16.1
2016-08-05T01:30:35.499Z,16.2
2016-08-05T01:30:50.384Z,16.2
2016-08-05T01:31:05.998Z,16.1
2016-08-05T01:31:20.916Z,16.1
2016-08-05T01:31:35.796Z,16.1
2016-08-05T01:31:51.419Z,16.1
2016-08-05T01:32:05.540Z,16.1
2016-08-05T01:32:18.926Z,16
2016-08-05T01:32:32.282Z,16
2016-08-05T01:32:47.147Z,16
2016-08-05T01:33:00.519Z,16
2016-08-05T01:33:15.380Z,16
2016-08-05T01:33:29.544Z,16
2016-08-05T01:33:44.423Z,16
2016-08-05T01:33:57.070Z,16
2016-08-05T01:34:10.497Z,16
2016-08-05T01:34:25.365Z,16
2016-08-05T01:34:40.244Z,16.1
2016-08-05T01:34:55.869Z,16.1
2016-08-05T01:35:10.781Z,16.1
2016-08-05T01:35:24.910Z,16.1
2016-08-05T01:35:39.072Z,16.1
2016-08-05T01:35:54.746Z,16
2016-08-05T01:36:08.110Z,16
2016-08-05T01:36:22.986Z,16.1
2016-08-05T01:36:38.597Z,16.1
2016-08-05T01:36:51.970Z,16.1
2016-08-05T01:37:06.836Z,16.1
2016-08-05T01:37:20.948Z,16.1
2016-08-05T01:37:35.831Z,16.1
2016-08-05T01:37:51.493Z,16
2016-08-05T01:38:05.684Z,16
2016-08-05T01:38:20.576Z,16.1
2016-08-05T01:38:35.451Z,16.1
2016-08-05T01:38:50.310Z,16.2
2016-08-05T01:39:04.430Z,16.1
2016-08-05T01:39:19.285Z,16
2016-08-05T01:39:34.149Z,16.1
2016-08-05T01:39:46.766Z,16.1
2016-08-05T01:40:00.136Z,16.1
2016-08-05T01:40:15.016Z,16.1
2016-08-05T01:40:39.529Z,16.1
2016-08-05T01:40:52.177Z,16.1
2016-08-05T01:41:07.051Z,16.1
2016-08-05T01:41:21.905Z,16.1
2016-08-05T01:41:37.533Z,16.1
2016-08-05T01:41:53.170Z,16.1
2016-08-05T01:42:07.286Z,16.1
2016-08-05T01:42:22.161Z,16
2016-08-05T01:42:35.557Z,16
2016-08-05T01:42:49.661Z,16.1
2016-08-05T01:43:03.781Z,16.1
2016-08-05T01:43:18.652Z,16
2016-08-05T01:43:34.283Z,16.1
2016-08-05T01:43:46.894Z,16
2016-08-05T01:44:00.305Z,16.1
2016-08-05T01:44:15.927Z,16
2016-08-05T01:44:30.036Z,16
2016-08-05T01:44:44.168Z,16.1
2016-08-05T01:44:57.550Z,16.1
2016-08-05T01:45:10.941Z,16.1
2016-08-05T01:45:25.809Z,16
2016-08-05T01:45:41.435Z,16
2016-08-05T01:45:57.053Z,16
2016-08-05T01:46:11.970Z,16
2016-08-05T01:46:26.083Z,16
2016-08-05T01:46:39.460Z,16
2016-08-05T01:46:53.646Z,16.1
2016-08-05T01:47:07.017Z,16
2016-08-05T01:47:21.887Z,16
2016-08-05T01:47:36.037Z,16
2016-08-05T01:47:50.915Z,16.1
2016-08-05T01:48:05.781Z,16.1
2016-08-05T01:48:20.658Z,16.1
2016-08-05T01:48:35.519Z,16
2016-08-05T01:48:51.151Z,16
2016-08-05T01:49:06.015Z,16
2016-08-05T01:49:21.653Z,16
2016-08-05T01:49:35.769Z,16
2016-08-05T01:49:49.887Z,16
2016-08-05T01:50:03.249Z,16
2016-08-05T01:50:17.365Z,16
2016-08-05T01:50:30.005Z,16
2016-08-05T01:50:43.377Z,16.1
2016-08-05T01:50:59.016Z,16.1
2016-08-05T01:51:13.150Z,16
2016-08-05T01:51:26.533Z,16
2016-08-05T01:51:42.137Z,16
2016-08-05T01:51:56.245Z,16.1
2016-08-05T01:52:08.847Z,16
2016-08-05T01:52:22.222Z,15.9
2016-08-05T01:52:36.356Z,16
2016-08-05T01:52:51.219Z,15.9
2016-08-05T01:53:06.081Z,15.9
2016-08-05T01:53:21.711Z,15.8
2016-08-05T01:53:36.575Z,16
2016-08-05T01:53:52.204Z,16
2016-08-05T01:54:06.319Z,16
2016-08-05T01:54:21.184Z,16
2016-08-05T01:54:35.295Z,16
2016-08-05T01:54:47.895Z,15.9
2016-08-05T01:55:02.008Z,15.9
2016-08-05T01:55:14.633Z,16
2016-08-05T01:55:37.697Z,15.9
2016-08-05T01:55:51.076Z,16
2016-08-05T01:56:05.938Z,15.9
2016-08-05T01:56:20.818Z,15.9
2016-08-05T01:56:35.758Z,15.9
2016-08-05T01:56:51.384Z,15.9
2016-08-05T01:57:05.478Z,15.9
2016-08-05T01:57:19.590Z,15.8
2016-08-05T01:57:34.476Z,15.8
2016-08-05T01:57:49.349Z,15.8
2016-08-05T01:58:04.200Z,15.8
2016-08-05T01:58:18.319Z,15.8
2016-08-05T01:58:32.440Z,15.7
2016-08-05T01:58:46.567Z,15.8
2016-08-05T01:58:59.199Z,15.8
2016-08-05T01:59:14.870Z,15.8
2016-08-05T01:59:28.980Z,15.8
2016-08-05T01:59:42.435Z,15.8
2016-08-05T01:59:56.557Z,15.9
2016-08-05T02:00:09.928Z,15.9
2016-08-05T02:00:25.552Z,15.8
2016-08-05T02:00:38.916Z,15.9
2016-08-05T02:00:54.538Z,15.8
2016-08-05T02:01:08.647Z,15.8
2016-08-05T02:01:22.818Z,15.8
2016-08-05T02:01:38.444Z,15.8
2016-08-05T02:01:51.822Z,15.9
2016-08-05T02:02:07.430Z,15.7
2016-08-05T02:02:21.541Z,15.7
2016-08-05T02:02:36.453Z,15.8
2016-08-05T02:02:49.060Z,15.8
2016-08-05T02:03:03.169Z,15.8
2016-08-05T02:03:16.565Z,15.8
2016-08-05T02:03:31.482Z,15.9
2016-08-05T02:03:45.601Z,15.9
2016-08-05T02:03:59.735Z,15.9
2016-08-05T02:04:13.844Z,15.9
2016-08-05T02:04:28.710Z,15.9
2016-08-05T02:04:43.599Z,15.8
2016-08-05T02:04:58.462Z,15.8
2016-08-05T02:05:13.327Z,15.7
2016-08-05T02:05:28.239Z,15.8
2016-08-05T02:05:42.366Z,15.8
2016-08-05T02:05:55.745Z,15.8
2016-08-05T02:06:11.369Z,15.8
2016-08-05T02:06:26.234Z,15.8
2016-08-05T02:06:39.637Z,15.8
2016-08-05T02:06:55.313Z,15.8
2016-08-05T02:07:10.175Z,15.8
2016-08-05T02:07:24.308Z,15.8
2016-08-05T02:07:38.423Z,15.9
2016-08-05T02:07:52.523Z,15.8
2016-08-05T02:08:06.632Z,15.9
2016-08-05T02:08:20.742Z,15.8
2016-08-05T02:08:34.853Z,15.9
2016-08-05T02:08:48.967Z,15.9
2016-08-05T02:09:01.582Z,15.9
2016-08-05T02:09:15.726Z,15.8
2016-08-05T02:09:29.917Z,15.8
2016-08-05T02:09:43.291Z,15.8
2016-08-05T02:09:57.404Z,15.8
2016-08-05T02:10:11.558Z,15.9
2016-08-05T02:10:37.341Z,15.8
2016-08-05T02:10:50.715Z,15.9
2016-08-05T02:11:03.343Z,15.8
2016-08-05T02:11:18.229Z,15.8
2016-08-05T02:11:33.845Z,15.7
2016-08-05T02:11:48.744Z,15.8
2016-08-05T02:12:02.123Z,15.8
2016-08-05T02:12:16.980Z,15.8
2016-08-05T02:12:32.596Z,15.9
2016-08-05T02:12:46.735Z,15.9
2016-08-05T02:13:00.869Z,15.8
2016-08-05T02:13:14.255Z,15.7
2016-08-05T02:13:29.164Z,15.9
2016-08-05T02:13:42.546Z,15.7
2016-08-05T02:13:55.947Z,15.8
2016-08-05T02:14:10.066Z,15.9
2016-08-05T02:14:24.924Z,15.8
2016-08-05T02:14:39.813Z,15.8
2016-08-05T02:14:54.675Z,15.8
2016-08-05T02:15:09.545Z,15.8
2016-08-05T02:15:25.154Z,15.9
2016-08-05T02:15:38.536Z,15.7
2016-08-05T02:15:54.146Z,15.8
2016-08-05T02:16:08.312Z,15.8
2016-08-05T02:16:22.447Z,15.8
2016-08-05T02:16:36.591Z,15.8
2016-08-05T02:16:52.208Z,15.8
2016-08-05T02:17:06.330Z,15.8
2016-08-05T02:17:21.198Z,15.8
2016-08-05T02:17:36.840Z,15.8
2016-08-05T02:17:51.783Z,15.7
2016-08-05T02:18:06.649Z,15.7
2016-08-05T02:18:21.516Z,15.7
2016-08-05T02:18:34.897Z,15.7
2016-08-05T02:18:49.774Z,15.7
2016-08-05T02:19:04.656Z,15.7
2016-08-05T02:19:18.799Z,15.7
2016-08-05T02:19:32.158Z,15.7
2016-08-05T02:19:47.763Z,15.8
2016-08-05T02:20:01.888Z,15.8
2016-08-05T02:20:16.023Z,15.8
2016-08-05T02:20:30.127Z,15.8
2016-08-05T02:20:45.739Z,15.7
2016-08-05T02:21:01.372Z,15.8
2016-08-05T02:21:15.483Z,15.8
2016-08-05T02:21:28.837Z,15.7
2016-08-05T02:21:42.953Z,15.8
2016-08-05T02:21:57.084Z,15.7
2016-08-05T02:22:10.456Z,15.7
2016-08-05T02:22:26.069Z,15.7
2016-08-05T02:22:40.235Z,15.7
2016-08-05T02:22:54.348Z,15.6
2016-08-05T02:23:09.212Z,15.6
2016-08-05T02:23:24.094Z,15.8
2016-08-05T02:23:38.206Z,15.8
2016-08-05T02:23:52.332Z,15.7
2016-08-05T02:24:07.196Z,15.7
2016-08-05T02:24:22.806Z,15.8
2016-08-05T02:24:36.924Z,15.8
2016-08-05T02:24:51.781Z,15.7
2016-08-05T02:25:06.644Z,15.8
2016-08-05T02:25:20.773Z,15.8
2016-08-05T02:25:45.195Z,15.7
2016-08-05T02:26:00.065Z,15.8
2016-08-05T02:26:14.178Z,15.8
2016-08-05T02:26:29.794Z,15.7
2016-08-05T02:26:44.661Z,15.8
2016-08-05T02:26:59.534Z,15.7
2016-08-05T02:27:14.402Z,15.7
2016-08-05T02:27:30.063Z,15.8
2016-08-05T02:27:44.236Z,15.8
2016-08-05T02:27:58.382Z,15.8
2016-08-05T02:28:13.248Z,15.8
2016-08-05T02:28:28.116Z,15.7
2016-08-05T02:28:43.052Z,15.8
2016-08-05T02:28:58.661Z,15.8
2016-08-05T02:29:13.533Z,15.7
2016-08-05T02:29:27.644Z,15.8
2016-08-05T02:29:42.511Z,15.7
2016-08-05T02:29:57.377Z,15.8
2016-08-05T02:30:12.988Z,15.7
2016-08-05T02:30:27.862Z,15.7
2016-08-05T02:30:42.722Z,15.8
2016-08-05T02:30:55.345Z,15.7
2016-08-05T02:31:10.226Z,15.7
2016-08-05T02:31:25.088Z,15.7
2016-08-05T02:31:39.208Z,15.7
2016-08-05T02:31:54.066Z,15.7
2016-08-05T02:32:08.930Z,15.7
2016-08-05T02:32:23.033Z,15.8
2016-08-05T02:32:37.957Z,15.7
2016-08-05T02:32:52.824Z,15.7
2016-08-05T02:33:07.701Z,15.7
2016-08-05T02:33:21.816Z,15.8
2016-08-05T02:33:36.675Z,15.7
2016-08-05T02:33:50.044Z,15.8
2016-08-05T02:34:04.163Z,15.7
2016-08-05T02:34:19.085Z,15.7
2016-08-05T02:34:33.940Z,15.7
2016-08-05T02:34:48.907Z,15.8
2016-08-05T02:35:02.335Z,15.8
2016-08-05T02:35:16.451Z,15.7
2016-08-05T02:35:30.563Z,15.7
2016-08-05T02:35:44.667Z,15.8
2016-08-05T02:35:59.550Z,15.6
2016-08-05T02:36:12.959Z,15.7
2016-08-05T02:36:26.338Z,15.6
2016-08-05T02:36:41.215Z,15.7
2016-08-05T02:36:55.339Z,15.7
2016-08-05T02:37:09.455Z,15.8
2016-08-05T02:37:24.395Z,15.7
2016-08-05T02:37:40.060Z,15.7
2016-08-05T02:37:53.448Z,15.8
2016-08-05T02:38:08.306Z,15.7
2016-08-05T02:38:22.408Z,15.8
2016-08-05T02:38:36.552Z,15.7
2016-08-05T02:38:50.684Z,15.7
2016-08-05T02:39:05.628Z,15.7
2016-08-05T02:39:21.241Z,15.8
2016-08-05T02:39:34.604Z,15.8
2016-08-05T02:39:50.217Z,15.8
2016-08-05T02:40:05.101Z,15.8
2016-08-05T02:40:19.222Z,15.7
2016-08-05T02:40:43.222Z,15.8
2016-08-05T02:40:57.326Z,15.7
2016-08-05T02:41:11.566Z,15.7
2016-08-05T02:41:24.918Z,15.8
2016-08-05T02:41:39.055Z,15.7
2016-08-05T02:41:54.662Z,15.8
2016-08-05T02:42:08.037Z,15.7
2016-08-05T02:42:21.404Z,15.8
2016-08-05T02:42:37.032Z,15.8
2016-08-05T02:42:51.912Z,15.8
2016-08-05T02:43:06.776Z,15.7
2016-08-05T02:43:21.637Z,15.7
2016-08-05T02:43:36.501Z,15.8
2016-08-05T02:43:49.932Z,15.7
2016-08-05T02:44:04.805Z,15.8
2016-08-05T02:44:19.660Z,15.8
2016-08-05T02:44:32.396Z,15.8
2016-08-05T02:44:47.286Z,15.8
2016-08-05T02:45:02.139Z,15.8
2016-08-05T02:45:16.255Z,15.8
2016-08-05T02:45:30.386Z,15.8
2016-08-05T02:45:44.504Z,15.8
2016-08-05T02:46:00.117Z,15.7
2016-08-05T02:46:14.334Z,15.8
2016-08-05T02:46:29.192Z,15.7
2016-08-05T02:46:43.333Z,15.8
2016-08-05T02:46:58.943Z,15.7
2016-08-05T02:47:13.071Z,15.9
2016-08-05T02:47:28.689Z,15.8
2016-08-05T02:47:42.802Z,15.8
2016-08-05T02:47:57.676Z,15.7
2016-08-05T02:48:12.555Z,15.8
2016-08-05T02:48:27.416Z,15.8
2016-08-05T02:48:41.522Z,15.7
2016-08-05T02:48:55.644Z,15.7
2016-08-05T02:49:09.765Z,15.8
2016-08-05T02:49:22.376Z,15.8
2016-08-05T02:49:38.005Z,15.7
2016-08-05T02:49:52.936Z,15.7
2016-08-05T02:50:07.924Z,15.8
2016-08-05T02:50:23.524Z,15.8
2016-08-05T02:50:39.154Z,15.8
2016-08-05T02:50:54.021Z,15.8
2016-08-05T02:51:09.631Z,15.8
2016-08-05T02:51:25.244Z,15.7
2016-08-05T02:51:39.429Z,15.7
2016-08-05T02:51:55.033Z,15.8
2016-08-05T02:52:10.643Z,15.8
2016-08-05T02:52:24.019Z,15.7
2016-08-05T02:52:37.381Z,15.6
2016-08-05T02:52:52.353Z,15.7
2016-08-05T02:53:05.797Z,15.7
2016-08-05T02:53:19.926Z,15.6
2016-08-05T02:53:33.359Z,15.6
2016-08-05T02:53:48.969Z,15.6
2016-08-05T02:54:03.087Z,15.6
2016-08-05T02:54:17.220Z,15.5
2016-08-05T02:54:32.095Z,15.6
2016-08-05T02:54:47.692Z,15.6
2016-08-05T02:55:03.311Z,15.6
2016-08-05T02:55:16.661Z,15.7
2016-08-05T02:55:30.782Z,15.6
2016-08-05T02:55:53.753Z,15.6
2016-08-05T02:56:06.376Z,15.7
2016-08-05T02:56:21.989Z,15.5
2016-08-05T02:56:36.092Z,15.5
2016-08-05T02:56:51.779Z,15.5
2016-08-05T02:57:07.393Z,15.5
2016-08-05T02:57:23.012Z,15.6
2016-08-05T02:57:37.887Z,15.7
2016-08-05T02:57:52.008Z,15.6
2016-08-05T02:58:06.123Z,15.7
2016-08-05T02:58:20.226Z,15.7
2016-08-05T02:58:31.367Z,15.7
2016-08-05T02:58:46.234Z,15.7
2016-08-05T02:58:59.611Z,15.7
2016-08-05T02:59:15.229Z,15.8
2016-08-05T02:59:30.865Z,15.7
2016-08-05T02:59:43.464Z,15.7
2016-08-05T02:59:56.844Z,15.7
2016-08-05T03:00:10.960Z,15.7
2016-08-05T03:00:25.819Z,15.7
2016-08-05T03:00:39.179Z,15.7
2016-08-05T03:00:54.104Z,15.7
2016-08-05T03:01:09.730Z,15.7
2016-08-05T03:01:25.340Z,15.7
2016-08-05T03:01:40.258Z,15.7
2016-08-05T03:01:54.374Z,15.7
2016-08-05T03:02:09.236Z,15.7
2016-08-05T03:02:23.348Z,15.8
2016-08-05T03:02:38.213Z,15.8
2016-08-05T03:02:53.078Z,15.7
2016-08-05T03:03:08.741Z,15.7
2016-08-05T03:03:22.105Z,15.8
2016-08-05T03:03:35.538Z,15.7
2016-08-05T03:03:51.202Z,15.7
2016-08-05T03:04:06.098Z,15.6
2016-08-05T03:04:19.475Z,15.7
2016-08-05T03:04:34.351Z,15.7
2016-08-05T03:04:49.963Z,15.7
2016-08-05T03:05:04.825Z,15.7
2016-08-05T03:05:18.943Z,15.7
2016-08-05T03:05:34.552Z,15.6
2016-08-05T03:05:48.671Z,15.8
2016-08-05T03:06:04.298Z,15.7
2016-08-05T03:06:19.225Z,15.7
2016-08-05T03:06:34.094Z,15.8
2016-08-05T03:06:49.708Z,15.7
2016-08-05T03:07:03.081Z,15.8
2016-08-05T03:07:17.944Z,15.7
2016-08-05T03:07:32.808Z,15.7
2016-08-05T03:07:47.686Z,15.7
2016-08-05T03:08:01.791Z,15.7
2016-08-05T03:08:15.925Z,15.7
2016-08-05T03:08:29.302Z,15.7
2016-08-05T03:08:43.409Z,15.8
2016-08-05T03:08:57.514Z,15.7
2016-08-05T03:09:12.368Z,15.7
2016-08-05T03:09:25.753Z,15.7
2016-08-05T03:09:39.185Z,15.7
2016-08-05T03:09:54.123Z,15.7
2016-08-05T03:10:09.001Z,15.8
2016-08-05T03:10:23.141Z,15.7
2016-08-05T03:10:46.341Z,15.7
2016-08-05T03:11:01.974Z,15.7
2016-08-05T03:11:17.592Z,15.7
2016-08-05T03:11:32.451Z,15.7
2016-08-05T03:11:46.583Z,15.7
2016-08-05T03:12:00.693Z,15.6
2016-08-05T03:12:15.567Z,15.7
2016-08-05T03:12:31.172Z,15.5
2016-08-05T03:12:46.041Z,15.5
2016-08-05T03:13:00.905Z,15.5
2016-08-05T03:13:15.768Z,15.5
2016-08-05T03:13:29.880Z,15.6
2016-08-05T03:13:43.993Z,15.7
2016-08-05T03:13:58.875Z,15.7
2016-08-05T03:14:14.478Z,15.7
2016-08-05T03:14:28.592Z,15.6
2016-08-05T03:14:44.208Z,15.6